createdAt,value
2022-09-01T00:01:31.934Z,13.59
2022-09-01T00:04:21.511Z,12.75
2022-09-01T00:07:08.008Z,13.28
2022-09-01T00:09:53.793Z,13.76
2022-09-01T00:12:39.280Z,13.36
2022-09-01T00:15:25.775Z,12.77
2022-09-01T00:18:11.012Z,13.74
2022-09-01T00:20:59.236Z,12.77
2022-09-01T00:23:45.136Z,11.99
2022-09-01T00:26:31.270Z,13.14
2022-09-01T00:29:16.699Z,12.61
2022-09-01T00:32:03.126Z,13.63
2022-09-01T00:34:48.572Z,13.04
2022-09-01T00:37:34.133Z,12.69
2022-09-01T00:40:20.266Z,13.58
2022-09-01T00:43:20.597Z,13.14
2022-09-01T00:46:09.452Z,13.12
2022-09-01T00:49:10.871Z,13.48
2022-09-01T00:52:06.430Z,13.39
2022-09-01T00:54:58.171Z,13.20
2022-09-01T00:57:45.500Z,13.15
2022-09-01T01:00:34.032Z,12.18
2022-09-01T01:03:19.865Z,13.06
2022-09-01T01:06:08.463Z,13.39
2022-09-01T01:09:00.397Z,13.02
2022-09-01T01:11:47.593Z,12.55
2022-09-01T01:14:36.957Z,13.49
2022-09-01T01:17:23.348Z,13.19
2022-09-01T01:20:30.049Z,13.37
2022-09-01T01:23:40.699Z,13.62
2022-09-01T01:26:27.283Z,13.67
2022-09-01T01:29:12.458Z,12.52
2022-09-01T01:31:58.736Z,12.75
2022-09-01T01:34:47.532Z,12.56
2022-09-01T01:37:36.452Z,13.19
2022-09-01T01:40:22.911Z,13.44
2022-09-01T01:43:11.571Z,12.67
2022-09-01T01:46:02.584Z,13.46
2022-09-01T01:48:53.838Z,13.43
2022-09-01T01:51:39.812Z,13.49
2022-09-01T01:54:29.197Z,12.32
2022-09-01T01:57:17.950Z,13.40
2022-09-01T02:00:04.587Z,12.47
2022-09-01T02:02:58.982Z,12.83
2022-09-01T02:05:49.314Z,12.28
2022-09-01T02:08:40.785Z,13.38
2022-09-01T02:11:26.775Z,13.38
2022-09-01T02:14:13.675Z,12.29
2022-09-01T02:17:05.903Z,12.33
2022-09-01T02:19:57.591Z,13.35
2022-09-01T02:22:44.678Z,13.52
2022-09-01T02:25:30.347Z,13.35
2022-09-01T02:28:17.295Z,13.51
2022-09-01T02:31:04.110Z,12.39
2022-09-01T02:33:50.003Z,13.27
2022-09-01T02:36:37.812Z,13.11
2022-09-01T02:39:27.229Z,13.46
2022-09-01T02:42:14.857Z,13.47
2022-09-01T02:45:02.604Z,12.19
2022-09-01T02:47:48.549Z,12.36
2022-09-01T02:50:36.666Z,13.33
2022-09-01T02:53:22.416Z,12.14
2022-09-01T02:56:15.378Z,13.23
2022-09-01T02:59:03.078Z,12.15
2022-09-01T03:01:50.774Z,13.23
2022-09-01T03:04:36.931Z,11.93
2022-09-01T03:07:24.033Z,12.72
2022-09-01T03:10:09.723Z,12.28
2022-09-01T03:12:55.137Z,13.16
2022-09-01T03:15:42.217Z,13.25
2022-09-01T03:18:27.676Z,13.25
2022-09-01T03:21:17.190Z,12.98
2022-09-01T03:24:03.998Z,12.08
2022-09-01T03:26:50.756Z,12.81
2022-09-01T03:29:38.392Z,13.07
2022-09-01T03:32:24.601Z,11.93
2022-09-01T03:35:10.328Z,11.89
2022-09-01T03:37:59.562Z,12.96
2022-09-01T03:40:45.529Z,12.98
2022-09-01T03:43:35.973Z,13.02
2022-09-01T03:46:22.885Z,12.10
2022-09-01T03:49:15.165Z,13.03
2022-09-01T03:52:01.335Z,12.07
2022-09-01T03:54:46.782Z,12.84
2022-09-01T03:57:32.548Z,12.93
2022-09-01T04:00:23.039Z,12.91
2022-09-01T04:03:12.795Z,12.85
2022-09-01T04:06:00.269Z,12.23
2022-09-01T04:08:47.210Z,12.79
2022-09-01T04:11:33.798Z,12.82
2022-09-01T04:14:20.465Z,12.86
2022-09-01T04:17:30.455Z,11.54
2022-09-01T04:20:20.231Z,12.83
2022-09-01T04:23:11.144Z,12.90
2022-09-01T04:26:09.617Z,12.44
2022-09-01T04:28:56.128Z,12.93
2022-09-01T04:31:42.514Z,11.62
2022-09-01T04:34:28.375Z,12.07
2022-09-01T04:37:21.589Z,12.97
2022-09-01T04:40:18.702Z,13.26
2022-09-01T04:43:06.518Z,13.32
2022-09-01T04:45:53.803Z,13.26
2022-09-01T04:48:42.254Z,13.48
2022-09-01T04:51:33.238Z,13.53
2022-09-01T04:54:20.930Z,13.13
2022-09-01T04:57:07.032Z,12.40
2022-09-01T04:59:56.995Z,13.15
2022-09-01T05:02:42.783Z,13.45
2022-09-01T05:05:28.099Z,13.49
2022-09-01T05:08:23.336Z,13.26
2022-09-01T05:11:12.131Z,12.50
2022-09-01T05:14:05.198Z,13.42
2022-09-01T05:16:57.130Z,13.25
2022-09-01T05:19:45.120Z,12.31
2022-09-01T05:22:31.812Z,13.56
2022-09-01T05:25:23.237Z,13.47
2022-09-01T05:28:09.964Z,12.83
2022-09-01T05:30:56.287Z,13.70
2022-09-01T05:33:46.136Z,13.78
2022-09-01T05:36:33.687Z,13.83
2022-09-01T05:39:20.915Z,14.04
2022-09-01T05:42:10.223Z,14.41
2022-09-01T05:44:58.044Z,13.45
2022-09-01T05:47:43.517Z,13.92
2022-09-01T05:50:29.584Z,15.40
2022-09-01T05:53:17.346Z,14.49
2022-09-01T05:56:09.339Z,14.70
2022-09-01T06:02:09.057Z,15.42
2022-09-01T06:04:56.977Z,16.04
2022-09-01T06:07:47.222Z,16.12
2022-09-01T06:10:33.758Z,16.20
2022-09-01T06:13:21.965Z,15.49
2022-09-01T06:16:15.594Z,16.39
2022-09-01T06:19:01.739Z,16.45
2022-09-01T06:21:47.876Z,16.55
2022-09-01T06:24:34.081Z,16.62
2022-09-01T06:27:20.438Z,16.46
2022-09-01T06:30:14.896Z,16.88
2022-09-01T06:33:09.462Z,16.24
2022-09-01T06:35:56.249Z,15.88
2022-09-01T06:38:43.255Z,17.45
2022-09-01T06:41:29.104Z,17.40
2022-09-01T06:44:22.363Z,17.75
2022-09-01T06:47:16.572Z,17.72
2022-09-01T06:50:03.702Z,17.83
2022-09-01T06:55:56.396Z,17.89
2022-09-01T06:58:47.471Z,18.49
2022-09-01T07:01:35.408Z,18.22
2022-09-01T07:04:22.137Z,19.18
2022-09-01T07:14:21.289Z,19.91
2022-09-01T07:17:26.888Z,19.97
2022-09-01T07:20:28.499Z,19.07
2022-09-01T07:23:24.475Z,19.94
2022-09-01T07:26:24.702Z,20.15
2022-09-01T07:29:11.717Z,19.84
2022-09-01T07:35:11.918Z,20.63
2022-09-01T07:38:48.695Z,19.88
2022-09-01T07:44:44.236Z,20.91
2022-09-01T07:47:52.815Z,20.87
2022-09-01T07:53:56.747Z,19.85
2022-09-01T07:56:43.209Z,20.00
2022-09-01T07:59:31.256Z,19.83
2022-09-01T08:02:24.734Z,20.82
2022-09-01T08:05:13.749Z,20.39
2022-09-01T08:08:00.119Z,20.92
2022-09-01T08:10:50.870Z,21.20
2022-09-01T08:13:42.417Z,19.01
2022-09-01T08:16:39.452Z,20.32
2022-09-01T08:19:27.905Z,21.07
2022-09-01T08:22:27.097Z,20.90
2022-09-01T08:25:24.749Z,20.31
2022-09-01T08:28:13.904Z,20.40
2022-09-01T08:31:11.406Z,21.39
2022-09-01T08:33:59.094Z,21.44
2022-09-01T08:36:45.108Z,20.49
2022-09-01T08:39:31.219Z,21.42
2022-09-01T08:42:35.729Z,21.39
2022-09-01T08:45:27.560Z,21.40
2022-09-01T08:48:51.004Z,21.44
2022-09-01T08:51:36.963Z,20.47
2022-09-01T08:54:42.775Z,20.69
2022-09-01T08:57:37.159Z,20.83
2022-09-01T09:00:55.928Z,21.52
2022-09-01T09:04:08.525Z,21.50
2022-09-01T09:07:07.043Z,21.40
2022-09-01T09:10:24.195Z,21.32
2022-09-01T09:13:27.123Z,21.09
2022-09-01T09:16:22.738Z,21.04
2022-09-01T09:19:15.703Z,21.09
2022-09-01T09:22:07.052Z,21.11
2022-09-01T09:25:00.429Z,21.17
2022-09-01T09:28:00.592Z,20.37
2022-09-01T09:30:47.126Z,20.69
2022-09-01T09:33:51.732Z,20.28
2022-09-01T09:36:38.141Z,21.20
2022-09-01T09:39:23.761Z,20.38
2022-09-01T09:42:15.216Z,20.00
2022-09-01T09:45:00.719Z,20.82
2022-09-01T09:47:46.837Z,20.71
2022-09-01T09:50:38.564Z,20.24
2022-09-01T09:53:26.486Z,20.79
2022-09-01T09:56:15.163Z,21.43
2022-09-01T09:59:00.635Z,21.56
2022-09-01T10:01:46.574Z,21.59
2022-09-01T10:04:41.488Z,21.35
2022-09-01T10:07:35.869Z,21.82
2022-09-01T10:10:29.652Z,21.79
2022-09-01T10:13:23.538Z,20.48
2022-09-01T10:16:32.036Z,21.52
2022-09-01T10:19:17.856Z,20.64
2022-09-01T10:22:03.537Z,20.67
2022-09-01T10:24:50.509Z,21.12
2022-09-01T10:27:40.985Z,21.34
2022-09-01T10:30:28.211Z,20.54
2022-09-01T10:33:20.830Z,20.73
2022-09-01T10:36:08.237Z,21.46
2022-09-01T10:38:58.926Z,21.30
2022-09-01T10:42:07.699Z,21.59
2022-09-01T10:44:58.739Z,20.40
2022-09-01T10:47:45.050Z,21.53
2022-09-01T10:50:36.040Z,21.25
2022-09-01T10:53:34.053Z,21.63
2022-09-01T10:56:43.633Z,21.70
2022-09-01T10:59:33.661Z,21.67
2022-09-01T11:02:26.309Z,21.73
2022-09-01T11:05:15.342Z,21.71
2022-09-01T11:08:23.193Z,21.66
2022-09-01T11:11:31.192Z,21.69
2022-09-01T11:14:20.918Z,21.43
2022-09-01T11:17:12.619Z,21.58
2022-09-01T11:20:10.750Z,20.71
2022-09-01T11:23:21.126Z,20.86
2022-09-01T11:26:32.732Z,21.89
2022-09-01T11:30:06.946Z,22.08
2022-09-01T11:33:03.952Z,22.22
2022-09-01T11:36:05.585Z,22.25
2022-09-01T11:39:04.295Z,21.98
2022-09-01T11:41:59.652Z,21.58
2022-09-01T11:44:58.091Z,21.01
2022-09-01T11:47:55.208Z,21.65
2022-09-01T11:50:44.460Z,21.50
2022-09-01T11:53:30.661Z,21.42
2022-09-01T11:56:30.490Z,21.25
2022-09-01T11:59:37.930Z,21.18
2022-09-01T12:02:36.661Z,21.18
2022-09-01T12:05:37.128Z,21.14
2022-09-01T12:08:24.289Z,21.16
2022-09-01T12:11:20.619Z,21.17
2022-09-01T12:14:11.683Z,20.24
2022-09-01T12:17:05.099Z,21.28
2022-09-01T12:19:51.597Z,21.36
2022-09-01T12:22:37.339Z,21.08
2022-09-01T12:25:35.299Z,21.57
2022-09-01T12:28:23.917Z,21.63
2022-09-01T12:31:17.246Z,21.87
2022-09-01T12:34:05.159Z,21.41
2022-09-01T12:37:10.314Z,21.80
2022-09-01T12:39:58.785Z,21.98
2022-09-01T12:42:51.077Z,21.95
2022-09-01T12:45:42.992Z,20.86
2022-09-01T12:48:31.482Z,21.69
2022-09-01T12:51:31.408Z,21.59
2022-09-01T12:54:26.160Z,21.44
2022-09-01T12:57:29.114Z,20.70
2022-09-01T13:00:21.836Z,21.63
2022-09-01T13:03:21.704Z,21.74
2022-09-01T13:06:08.024Z,21.85
2022-09-01T13:08:53.688Z,21.52
2022-09-01T13:14:45.296Z,21.97
2022-09-01T13:17:31.364Z,21.92
2022-09-01T13:20:18.529Z,20.97
2022-09-01T13:23:04.522Z,20.70
2022-09-01T13:25:50.310Z,21.55
2022-09-01T13:28:38.857Z,21.34
2022-09-01T13:31:30.708Z,21.57
2022-09-01T13:34:21.996Z,21.54
2022-09-01T13:37:10.009Z,21.52
2022-09-01T13:39:57.041Z,21.14
2022-09-01T13:42:44.186Z,21.59
2022-09-01T13:45:29.668Z,21.38
2022-09-01T13:48:16.846Z,21.26
2022-09-01T13:51:18.979Z,21.67
2022-09-01T13:54:04.679Z,21.25
2022-09-01T13:56:52.627Z,21.45
2022-09-01T13:59:42.374Z,21.84
2022-09-01T14:02:28.269Z,21.68
2022-09-01T14:05:13.820Z,21.88
2022-09-01T14:08:01.483Z,21.94
2022-09-01T14:10:54.901Z,21.74
2022-09-01T14:13:40.768Z,21.91
2022-09-01T14:16:26.562Z,21.95
2022-09-01T14:19:13.180Z,21.98
2022-09-01T14:21:59.164Z,21.99
2022-09-01T14:24:45.264Z,21.93
2022-09-01T14:27:33.446Z,21.94
2022-09-01T14:30:31.025Z,21.88
2022-09-01T14:33:18.904Z,21.83
2022-09-01T14:36:04.896Z,20.91
2022-09-01T14:38:51.622Z,21.79
2022-09-01T14:41:38.210Z,21.74
2022-09-01T14:44:27.687Z,21.61
2022-09-01T14:47:19.459Z,21.59
2022-09-01T14:53:01.219Z,21.27
2022-09-01T14:55:47.483Z,20.40
2022-09-01T14:58:33.259Z,21.05
2022-09-01T15:01:33.555Z,21.11
2022-09-01T15:04:20.790Z,21.30
2022-09-01T15:07:06.678Z,20.30
2022-09-01T15:09:52.649Z,21.23
2022-09-01T15:12:39.829Z,20.25
2022-09-01T15:15:27.140Z,20.75
2022-09-01T15:18:13.247Z,21.30
2022-09-01T15:20:59.469Z,20.95
2022-09-01T15:23:45.070Z,21.24
2022-09-01T15:26:31.024Z,21.17
2022-09-01T15:29:16.483Z,21.12
2022-09-01T15:32:02.123Z,20.92
2022-09-01T15:34:47.953Z,20.99
2022-09-01T15:37:34.714Z,20.78
2022-09-01T15:40:21.346Z,20.92
2022-09-01T15:43:06.966Z,20.85
2022-09-01T15:45:52.291Z,20.81
2022-09-01T15:48:38.148Z,19.92
2022-09-01T15:51:23.370Z,20.77
2022-09-01T15:54:15.724Z,19.80
2022-09-01T15:57:01.559Z,20.58
2022-09-01T15:59:47.030Z,19.74
2022-09-01T16:02:32.697Z,20.74
2022-09-01T16:05:18.518Z,20.45
2022-09-01T16:08:09.784Z,20.68
2022-09-01T16:10:56.023Z,19.65
2022-09-01T16:13:43.290Z,20.12
2022-09-01T16:16:41.190Z,20.65
2022-09-01T16:19:33.825Z,20.52
2022-09-01T16:22:33.161Z,20.54
2022-09-01T16:25:27.745Z,20.60
2022-09-01T16:28:25.481Z,20.53
2022-09-01T16:31:13.985Z,19.57
2022-09-01T16:34:05.191Z,19.53
2022-09-01T16:37:10.622Z,19.86
2022-09-01T16:40:09.907Z,19.77
2022-09-01T16:43:19.672Z,19.70
2022-09-01T16:46:23.734Z,20.32
2022-09-01T16:49:33.168Z,20.28
2022-09-01T16:52:29.557Z,19.18
2022-09-01T16:55:28.138Z,19.79
2022-09-01T16:58:32.070Z,20.10
2022-09-01T17:01:42.312Z,20.05
2022-09-01T17:04:58.731Z,19.96
2022-09-01T17:07:50.665Z,19.88
2022-09-01T17:10:41.788Z,19.77
2022-09-01T17:13:55.858Z,18.67
2022-09-01T17:16:44.467Z,18.57
2022-09-01T17:19:34.279Z,19.49
2022-09-01T17:22:21.682Z,19.49
2022-09-01T17:25:13.693Z,18.50
2022-09-01T17:28:08.564Z,19.41
2022-09-01T17:31:00.678Z,19.43
2022-09-01T17:33:55.188Z,19.41
2022-09-01T17:36:55.833Z,19.21
2022-09-01T17:40:18.210Z,19.32
2022-09-01T17:43:18.422Z,19.23
2022-09-01T17:46:27.259Z,19.28
2022-09-01T17:49:20.716Z,18.90
2022-09-01T17:52:09.765Z,18.97
2022-09-01T17:55:00.622Z,19.02
2022-09-01T17:58:11.776Z,18.88
2022-09-01T18:01:10.104Z,18.27
2022-09-01T18:04:11.506Z,18.49
2022-09-01T18:07:06.587Z,18.30
2022-09-01T18:09:55.938Z,17.27
2022-09-01T18:12:44.317Z,17.93
2022-09-01T18:15:59.972Z,16.65
2022-09-01T18:18:49.315Z,17.60
2022-09-01T18:21:38.188Z,17.16
2022-09-01T18:24:47.642Z,17.25
2022-09-01T18:27:35.984Z,17.11
2022-09-01T18:30:42.835Z,16.65
2022-09-01T18:34:00.335Z,16.88
2022-09-01T18:37:01.587Z,16.69
2022-09-01T18:39:59.825Z,16.45
2022-09-01T18:43:01.743Z,16.56
2022-09-01T18:46:16.728Z,16.48
2022-09-01T18:49:15.610Z,16.41
2022-09-01T18:52:09.299Z,15.04
2022-09-01T18:55:13.468Z,14.91
2022-09-01T18:58:06.139Z,16.04
2022-09-01T19:01:35.093Z,15.93
2022-09-01T19:04:31.040Z,14.92
2022-09-01T19:07:26.517Z,15.73
2022-09-01T19:10:27.595Z,14.69
2022-09-01T19:13:30.836Z,15.34
2022-09-01T19:16:33.434Z,15.17
2022-09-01T19:19:19.184Z,15.41
2022-09-01T19:22:05.129Z,15.26
2022-09-01T19:25:19.778Z,15.26
2022-09-01T19:28:31.931Z,15.16
2022-09-01T19:31:23.106Z,14.90
2022-09-01T19:34:13.049Z,14.69
2022-09-01T19:37:01.869Z,15.15
2022-09-01T19:39:53.382Z,15.08
2022-09-01T19:42:49.846Z,14.04
2022-09-01T19:45:56.075Z,15.13
2022-09-01T19:48:50.080Z,14.19
2022-09-01T19:51:51.197Z,14.22
2022-09-01T19:55:01.592Z,15.15
2022-09-01T19:58:11.492Z,15.08
2022-09-01T20:01:03.483Z,14.27
2022-09-01T20:03:53.667Z,14.78
2022-09-01T20:06:43.931Z,15.13
2022-09-01T20:09:49.784Z,15.31
2022-09-01T20:12:48.361Z,14.52
2022-09-01T20:15:51.100Z,14.29
2022-09-01T20:18:44.605Z,15.30
2022-09-01T20:21:31.346Z,14.01
2022-09-01T20:24:17.061Z,15.05
2022-09-01T20:27:04.549Z,14.87
2022-09-01T20:29:59.297Z,14.65
2022-09-01T20:33:00.833Z,14.45
2022-09-01T20:35:59.502Z,13.20
2022-09-01T20:39:19.553Z,13.81
2022-09-01T20:42:12.732Z,14.20
2022-09-01T20:45:15.234Z,14.31
2022-09-01T20:48:07.128Z,14.03
2022-09-01T20:51:17.566Z,13.18
2022-09-01T20:54:30.370Z,14.16
2022-09-01T20:57:34.479Z,12.96
2022-09-01T21:00:25.953Z,13.80
2022-09-01T21:03:36.240Z,13.97
2022-09-01T21:06:26.048Z,13.92
2022-09-01T21:09:11.535Z,13.85
2022-09-01T21:12:29.428Z,13.82
2022-09-01T21:15:35.222Z,13.79
2022-09-01T21:18:32.826Z,13.85
2022-09-01T21:21:32.467Z,13.91
2022-09-01T21:24:18.577Z,13.86
2022-09-01T21:27:11.268Z,13.77
2022-09-01T21:30:09.873Z,12.80
2022-09-01T21:32:57.206Z,12.79
2022-09-01T21:35:42.682Z,12.83
2022-09-01T21:38:29.471Z,12.96
2022-09-01T21:41:15.287Z,13.93
2022-09-01T21:44:00.834Z,13.81
2022-09-01T21:46:46.271Z,13.98
2022-09-01T21:49:33.244Z,13.35
2022-09-01T21:52:19.068Z,14.36
2022-09-01T21:55:06.113Z,13.01
2022-09-01T21:57:51.989Z,13.29
2022-09-01T22:00:39.483Z,14.44
2022-09-01T22:03:25.191Z,14.61
2022-09-01T22:06:12.221Z,14.60
2022-09-01T22:09:02.466Z,13.60
2022-09-01T22:11:53.043Z,14.76
2022-09-01T22:14:38.750Z,14.06
2022-09-01T22:17:24.458Z,14.68
2022-09-01T22:20:11.321Z,14.03
2022-09-01T22:23:01.785Z,14.58
2022-09-01T22:25:47.753Z,14.57
2022-09-01T22:28:33.425Z,13.75
2022-09-01T22:31:21.326Z,14.72
2022-09-01T22:34:07.531Z,14.38
2022-09-01T22:36:53.343Z,14.59
2022-09-01T22:39:38.804Z,14.71
2022-09-01T22:42:24.928Z,14.70
2022-09-01T22:45:13.078Z,13.79
2022-09-01T22:47:58.389Z,14.47
2022-09-01T22:50:45.120Z,14.70
2022-09-01T22:53:31.077Z,14.66
2022-09-01T22:56:23.307Z,13.51
2022-09-01T22:59:13.206Z,13.72
2022-09-01T23:02:01.145Z,13.51
2022-09-01T23:04:47.170Z,14.42
2022-09-01T23:07:35.116Z,13.69
2022-09-01T23:10:21.226Z,14.14
2022-09-01T23:13:06.890Z,14.41
2022-09-01T23:15:52.596Z,14.38
2022-09-01T23:18:40.646Z,14.55
2022-09-01T23:21:29.436Z,14.54
2022-09-01T23:24:16.283Z,14.36
2022-09-01T23:27:05.437Z,14.58
2022-09-01T23:29:51.325Z,14.45
2022-09-01T23:32:37.333Z,14.51
2022-09-01T23:35:22.896Z,14.20
2022-09-01T23:38:08.608Z,13.15
2022-09-01T23:40:56.175Z,14.38
2022-09-01T23:43:41.695Z,13.70
2022-09-01T23:46:30.788Z,13.88
2022-09-01T23:49:18.137Z,14.34
2022-09-01T23:52:03.810Z,13.39
2022-09-01T23:54:49.403Z,14.40
2022-09-01T23:57:35.250Z,14.41
